createdAt,value
2023-05-06T00:04:12.316Z,13.69
2023-05-06T00:09:15.978Z,13.65
2023-05-06T00:14:19.259Z,13.61
2023-05-06T00:19:22.310Z,13.55
2023-05-06T00:24:25.724Z,13.49
2023-05-06T00:29:28.729Z,13.39
2023-05-06T00:34:31.894Z,13.32
2023-05-06T00:39:35.169Z,13.25
2023-05-06T00:44:39.397Z,13.21
2023-05-06T00:49:42.680Z,13.19
2023-05-06T00:54:45.794Z,13.19
2023-05-06T00:59:48.829Z,13.16
2023-05-06T01:04:52.729Z,13.13
2023-05-06T01:10:13.729Z,13.09
2023-05-06T01:15:46.606Z,13.07
2023-05-06T01:25:34.337Z,13.01
2023-05-06T01:30:50.071Z,12.94
2023-05-06T01:36:03.372Z,12.91
2023-05-06T01:41:08.352Z,12.85
2023-05-06T01:46:16.160Z,12.78
2023-05-06T01:51:22.172Z,12.72
2023-05-06T01:56:27.309Z,12.71
2023-05-06T02:01:30.899Z,12.67
2023-05-06T02:06:34.451Z,12.64
2023-05-06T02:11:37.898Z,12.61
2023-05-06T02:16:43.206Z,12.56
2023-05-06T02:21:46.679Z,12.54
2023-05-06T02:26:50.104Z,12.52
2023-05-06T02:31:53.905Z,12.52
2023-05-06T02:36:57.694Z,12.50
2023-05-06T02:42:02.824Z,12.46
2023-05-06T02:47:06.268Z,12.42
2023-05-06T02:52:09.670Z,12.38
2023-05-06T02:57:13.027Z,12.38
2023-05-06T03:02:16.458Z,12.36
2023-05-06T03:07:20.715Z,12.37
2023-05-06T03:12:24.734Z,12.35
2023-05-06T03:17:28.082Z,12.31
2023-05-06T03:22:36.100Z,12.30
2023-05-06T03:27:39.750Z,12.27
2023-05-06T03:32:49.104Z,12.28
2023-05-06T03:38:13.117Z,12.25
2023-05-06T03:43:24.955Z,12.25
2023-05-06T03:48:31.577Z,12.27
2023-05-06T03:53:35.143Z,12.31
2023-05-06T03:58:40.108Z,12.28
2023-05-06T04:03:45.258Z,12.26
2023-05-06T04:08:49.193Z,12.24
2023-05-06T04:13:53.870Z,12.24
2023-05-06T04:18:58.896Z,12.21
2023-05-06T04:24:03.996Z,12.21
2023-05-06T04:29:11.527Z,12.28
2023-05-06T04:34:25.533Z,12.32
2023-05-06T04:39:29.250Z,12.36
2023-05-06T04:44:34.260Z,12.41
2023-05-06T04:49:38.390Z,12.49
2023-05-06T05:00:57.559Z,12.61
2023-05-06T05:06:01.066Z,12.72
2023-05-06T05:11:07.144Z,12.77
2023-05-06T05:16:11.733Z,12.87
2023-05-06T05:21:16.479Z,12.88
2023-05-06T05:26:21.850Z,12.88
2023-05-06T05:31:27.586Z,12.88
2023-05-06T05:36:31.811Z,12.92
2023-05-06T05:41:36.479Z,12.95
2023-05-06T05:46:40.411Z,12.94
2023-05-06T05:51:43.940Z,12.97
2023-05-06T05:56:48.212Z,12.99
2023-05-06T06:01:52.222Z,13.06
2023-05-06T06:06:58.260Z,13.17
2023-05-06T06:12:02.414Z,13.29
2023-05-06T06:17:07.266Z,13.40
2023-05-06T06:22:11.090Z,13.49
2023-05-06T06:27:15.691Z,13.53
2023-05-06T06:32:19.958Z,13.55
2023-05-06T06:37:23.419Z,13.61
2023-05-06T06:42:27.277Z,13.66
2023-05-06T06:47:46.174Z,13.75
2023-05-06T06:52:49.505Z,13.90
2023-05-06T06:57:52.967Z,13.98
2023-05-06T07:02:56.378Z,14.08
2023-05-06T07:08:00.026Z,14.20
2023-05-06T07:13:03.889Z,14.22
2023-05-06T07:18:07.484Z,14.28
2023-05-06T07:23:10.616Z,14.27
2023-05-06T07:28:13.706Z,14.27
2023-05-06T07:33:17.288Z,14.37
2023-05-06T07:38:23.872Z,14.41
2023-05-06T07:43:27.056Z,14.48
2023-05-06T07:48:31.061Z,14.60
2023-05-06T07:53:34.426Z,14.69
2023-05-06T07:58:37.523Z,14.79
2023-05-06T08:03:40.641Z,14.93
2023-05-06T08:08:43.757Z,15.07
2023-05-06T08:13:47.341Z,15.20
2023-05-06T08:18:50.543Z,15.29
2023-05-06T08:23:53.697Z,15.36
2023-05-06T08:28:57.898Z,15.43
2023-05-06T08:34:07.972Z,15.53
2023-05-06T08:39:11.661Z,15.64
2023-05-06T08:44:18.981Z,15.77
2023-05-06T08:49:22.103Z,15.95
2023-05-06T08:54:34.795Z,16.11
2023-05-06T08:59:39.832Z,16.25
2023-05-06T09:04:43.665Z,16.31
2023-05-06T09:09:47.140Z,16.45
2023-05-06T09:14:51.680Z,16.63
2023-05-06T09:19:59.392Z,17.30
2023-05-06T09:25:03.574Z,18.27
2023-05-06T09:30:12.281Z,18.77
2023-05-06T09:35:15.515Z,19.00
2023-05-06T09:40:18.956Z,19.23
2023-05-06T09:45:22.312Z,19.31
2023-05-06T09:50:26.908Z,19.38
2023-05-06T09:55:39.877Z,19.43
2023-05-06T10:00:46.825Z,19.47
2023-05-06T10:05:50.576Z,19.54
2023-05-06T10:10:54.959Z,19.62
2023-05-06T10:16:02.014Z,19.73
2023-05-06T10:21:14.338Z,19.88
2023-05-06T10:26:20.143Z,19.97
2023-05-06T10:31:23.363Z,20.01
2023-05-06T10:36:31.936Z,19.97
2023-05-06T10:41:37.302Z,19.95
2023-05-06T10:47:01.860Z,19.96
2023-05-06T10:52:22.902Z,19.91
2023-05-06T10:57:27.484Z,19.85
2023-05-06T11:02:39.472Z,19.73
2023-05-06T11:07:43.171Z,19.65
2023-05-06T11:12:56.975Z,19.55
2023-05-06T11:18:31.092Z,19.37
2023-05-06T11:23:42.680Z,19.18
2023-05-06T11:28:47.842Z,18.99
2023-05-06T11:33:53.316Z,18.62
2023-05-06T11:38:56.577Z,18.26
2023-05-06T11:43:59.845Z,17.95
2023-05-06T11:49:03.000Z,17.75
2023-05-06T11:54:11.076Z,17.57
2023-05-06T11:59:14.633Z,17.36
2023-05-06T12:04:17.796Z,17.16
2023-05-06T12:09:22.502Z,16.94
2023-05-06T12:14:25.702Z,16.75
2023-05-06T12:19:30.191Z,16.65
2023-05-06T12:24:33.288Z,16.62
2023-05-06T12:29:39.416Z,16.62
2023-05-06T12:34:42.554Z,16.62
2023-05-06T12:40:00.461Z,16.60
2023-05-06T12:45:16.062Z,16.54
2023-05-06T12:50:38.028Z,16.50
2023-05-06T12:55:45.448Z,16.44
2023-05-06T13:00:50.562Z,16.39
2023-05-06T13:05:53.661Z,16.35
2023-05-06T13:10:56.808Z,16.39
2023-05-06T13:16:02.717Z,16.38
2023-05-06T13:21:26.574Z,16.34
2023-05-06T13:26:48.141Z,16.32
2023-05-06T13:31:51.941Z,16.29
2023-05-06T13:36:56.749Z,16.22
2023-05-06T13:42:00.236Z,16.14
2023-05-06T13:47:03.441Z,16.13
2023-05-06T13:52:08.129Z,16.09
2023-05-06T13:57:11.444Z,16.07
2023-05-06T14:02:14.537Z,16.06
2023-05-06T14:07:17.697Z,16.08
2023-05-06T14:12:22.987Z,16.08
2023-05-06T14:17:26.398Z,16.03
2023-05-06T14:22:35.008Z,15.98
2023-05-06T14:27:38.187Z,15.95
2023-05-06T14:32:41.216Z,15.97
2023-05-06T14:37:44.412Z,16.04
2023-05-06T14:42:48.106Z,16.02
2023-05-06T14:47:51.821Z,15.97
2023-05-06T14:52:54.841Z,15.97
2023-05-06T14:57:57.942Z,16.00
2023-05-06T15:03:02.647Z,16.16
2023-05-06T15:08:06.174Z,16.36
2023-05-06T15:13:09.317Z,16.56
2023-05-06T15:18:13.415Z,16.62
2023-05-06T15:23:16.710Z,16.69
2023-05-06T15:31:48.756Z,16.99
2023-05-06T15:36:53.394Z,17.04
2023-05-06T15:41:58.892Z,17.00
2023-05-06T15:47:01.904Z,16.93
2023-05-06T15:52:04.949Z,16.85
2023-05-06T15:57:08.012Z,17.05
2023-05-06T16:07:17.097Z,17.42
2023-05-06T16:12:20.164Z,17.73
2023-05-06T16:17:23.255Z,18.16
2023-05-06T16:22:26.476Z,18.12
2023-05-06T16:27:35.949Z,17.96
2023-05-06T16:32:39.077Z,17.74
2023-05-06T16:37:43.925Z,17.66
2023-05-06T16:42:50.361Z,17.58
2023-05-06T16:47:53.925Z,17.48
2023-05-06T16:53:00.797Z,17.27
2023-05-06T16:58:06.931Z,17.15
2023-05-06T17:03:10.186Z,17.05
2023-05-06T17:08:13.773Z,16.94
2023-05-06T17:13:16.992Z,16.82
2023-05-06T17:18:20.032Z,16.74
2023-05-06T17:23:23.143Z,16.69
2023-05-06T17:28:26.163Z,16.67
2023-05-06T17:33:29.171Z,16.58
2023-05-06T17:38:32.242Z,16.51
2023-05-06T17:43:35.192Z,16.50
2023-05-06T17:48:39.541Z,16.54
2023-05-06T17:53:42.708Z,16.52
2023-05-06T17:59:02.792Z,16.49
2023-05-06T18:04:06.025Z,16.38
2023-05-06T18:09:10.488Z,16.26
2023-05-06T18:14:13.648Z,16.10
2023-05-06T18:19:16.809Z,16.01
2023-05-06T20:45:31.259Z,15.20
2023-05-06T20:50:39.768Z,15.10
2023-05-06T20:55:43.058Z,15.04
2023-05-06T21:00:46.326Z,15.00
2023-05-06T21:05:50.072Z,14.95
2023-05-06T21:10:53.263Z,14.94
2023-05-06T21:15:56.243Z,14.90
2023-05-06T21:20:59.841Z,14.87
2023-05-06T21:26:03.551Z,14.89
2023-05-06T21:31:06.701Z,14.93
2023-05-06T21:36:09.738Z,15.01
2023-05-06T21:41:12.702Z,15.00
2023-05-06T21:46:18.436Z,14.96
2023-05-06T21:51:21.556Z,14.91
2023-05-06T21:56:24.797Z,14.88
2023-05-06T22:01:27.916Z,14.85
2023-05-06T22:06:31.535Z,14.84
2023-05-06T22:11:35.012Z,14.82
2023-05-06T22:16:38.296Z,14.90
2023-05-06T22:21:41.561Z,14.90
2023-05-06T22:26:44.543Z,14.92
2023-05-06T22:31:47.581Z,14.82
2023-05-06T22:36:50.812Z,14.78
2023-05-06T22:41:57.307Z,14.69
2023-05-06T22:47:00.729Z,14.64
2023-05-06T22:52:04.327Z,14.59
2023-05-06T22:57:07.391Z,14.47
2023-05-06T23:02:10.518Z,14.39
2023-05-06T23:07:14.040Z,14.33
2023-05-06T23:12:17.132Z,14.28
2023-05-06T23:17:20.123Z,14.19
2023-05-06T23:22:23.208Z,14.09
2023-05-06T23:27:26.315Z,13.99
2023-05-06T23:32:29.339Z,13.87
2023-05-06T23:37:32.366Z,13.77
2023-05-06T23:42:35.653Z,13.73
2023-05-06T23:47:39.795Z,13.73
2023-05-06T23:52:43.561Z,13.70
2023-05-06T23:57:46.675Z,13.71
